TVF728 LFBP-LFPO
Flight info
| Callsign | TVF728 |
|---|---|
| Flight time | N/A |
| Altitude | 28000 |
| Route | USAKU DCT AGN DCT DIBAG DCT TUDRA DCT BEVOL UT158 AMB |
| Aircraft | B38M/M-SDE1FGHILORVWXY/HB1 |
Departure
| Time | N/A |
|---|---|
| Airport | Pau Pyrénées Airport (LFBP) |
Arrival
| Time | 2026-05-05 13:54 |
|---|---|
| Airport | Paris-Orly Airport (LFPO) |
| Time | Latitude | Longitude | Altitude | Speed | Heading |
|---|---|---|---|---|---|
| 2026-05-05 13:28 | 46.92431 | 0.90380 | 31957 ft | 442 kts | 14° |
| 2026-05-05 13:28 | 46.95419 | 0.91286 | 31561 ft | 435 kts | 14° |
| 2026-05-05 13:28 | 46.98363 | 0.92206 | 31094 ft | 430 kts | 15° |
| 2026-05-05 13:28 | 47.01285 | 0.93121 | 30510 ft | 428 kts | 15° |
| 2026-05-05 13:29 | 47.04194 | 0.94038 | 29922 ft | 426 kts | 16° |
| 2026-05-05 13:29 | 47.07076 | 0.94953 | 29400 ft | 421 kts | 16° |
| 2026-05-05 13:29 | 47.09882 | 0.95847 | 28956 ft | 414 kts | 16° |
| 2026-05-05 13:29 | 47.12681 | 0.96740 | 28507 ft | 409 kts | 16° |
| 2026-05-05 13:30 | 47.15442 | 0.97622 | 28064 ft | 404 kts | 16° |
| 2026-05-05 13:30 | 47.18176 | 0.98497 | 27612 ft | 399 kts | 16° |
| 2026-05-05 13:30 | 47.20869 | 0.99358 | 27191 ft | 394 kts | 15° |
| 2026-05-05 13:30 | 47.23534 | 1.00213 | 26772 ft | 390 kts | 15° |
| 2026-05-05 13:31 | 47.26173 | 1.01060 | 26357 ft | 386 kts | 15° |
| 2026-05-05 13:31 | 47.28784 | 1.01898 | 25950 ft | 383 kts | 15° |
| 2026-05-05 13:31 | 47.31375 | 1.02731 | 25553 ft | 379 kts | 15° |
| 2026-05-05 13:31 | 47.33946 | 1.03559 | 25162 ft | 377 kts | 15° |
| 2026-05-05 13:32 | 47.36506 | 1.04383 | 24765 ft | 375 kts | 15° |
| 2026-05-05 13:32 | 47.39050 | 1.05203 | 24370 ft | 372 kts | 15° |
| 2026-05-05 13:32 | 47.41566 | 1.06049 | 23989 ft | 370 kts | 15° |
| 2026-05-05 13:32 | 47.44034 | 1.07063 | 23568 ft | 367 kts | 22° |
| 2026-05-05 13:33 | 47.46440 | 1.08295 | 23136 ft | 366 kts | 21° |
| 2026-05-05 13:33 | 47.48844 | 1.09494 | 22714 ft | 364 kts | 21° |
| 2026-05-05 13:33 | 47.50432 | 1.10282 | 22421 ft | 362 kts | 21° |
| 2026-05-05 13:33 | 47.52815 | 1.11501 | 21941 ft | 362 kts | 21° |
| 2026-05-05 13:34 | 47.55956 | 1.13101 | 21434 ft | 358 kts | 21° |
| 2026-05-05 13:34 | 47.58308 | 1.14296 | 21045 ft | 357 kts | 21° |
| 2026-05-05 13:34 | 47.60664 | 1.15494 | 20635 ft | 357 kts | 21° |
| 2026-05-05 13:34 | 47.62256 | 1.16303 | 20363 ft | 358 kts | 20° |
| 2026-05-05 13:35 | 47.64577 | 1.17493 | 19942 ft | 358 kts | 20° |
| 2026-05-05 13:35 | 47.66939 | 1.18691 | 19539 ft | 359 kts | 20° |
| 2026-05-05 13:35 | 47.69306 | 1.19895 | 19137 ft | 359 kts | 20° |
| 2026-05-05 13:35 | 47.71676 | 1.21103 | 18738 ft | 359 kts | 20° |
| 2026-05-05 13:36 | 47.74035 | 1.22308 | 18329 ft | 358 kts | 20° |
| 2026-05-05 13:36 | 47.76385 | 1.23510 | 17895 ft | 357 kts | 20° |
| 2026-05-05 13:36 | 47.78734 | 1.24712 | 17448 ft | 356 kts | 19° |
| 2026-05-05 13:36 | 47.81073 | 1.25909 | 17047 ft | 354 kts | 19° |
| 2026-05-05 13:37 | 47.83396 | 1.27100 | 16638 ft | 352 kts | 19° |
| 2026-05-05 13:37 | 47.85700 | 1.28283 | 16242 ft | 349 kts | 19° |
| 2026-05-05 13:37 | 47.87992 | 1.29461 | 15846 ft | 347 kts | 19° |
| 2026-05-05 13:37 | 47.90266 | 1.30631 | 15451 ft | 345 kts | 19° |
| 2026-05-05 13:38 | 47.92527 | 1.31794 | 15055 ft | 343 kts | 19° |
| 2026-05-05 13:38 | 47.94774 | 1.32952 | 14657 ft | 341 kts | 19° |
| 2026-05-05 13:38 | 47.97006 | 1.34103 | 14288 ft | 338 kts | 19° |
| 2026-05-05 13:38 | 47.99229 | 1.35250 | 13909 ft | 337 kts | 19° |
| 2026-05-05 13:39 | 48.01441 | 1.36392 | 13507 ft | 335 kts | 19° |
| 2026-05-05 13:39 | 48.03640 | 1.37531 | 13085 ft | 333 kts | 19° |
| 2026-05-05 13:39 | 48.05806 | 1.38702 | 12752 ft | 328 kts | 26° |
| 2026-05-05 13:39 | 48.07719 | 1.40492 | 12472 ft | 321 kts | 35° |
| 2026-05-05 13:40 | 48.09524 | 1.42331 | 12241 ft | 315 kts | 34° |
| 2026-05-05 13:40 | 48.11323 | 1.44154 | 12013 ft | 310 kts | 34° |
| 2026-05-05 13:40 | 48.13120 | 1.45971 | 11763 ft | 306 kts | 34° |
| 2026-05-05 13:40 | 48.14862 | 1.47732 | 11439 ft | 305 kts | 34° |
| 2026-05-05 13:41 | 48.16621 | 1.49510 | 11137 ft | 304 kts | 34° |
| 2026-05-05 13:41 | 48.18369 | 1.51279 | 10831 ft | 302 kts | 34° |
| 2026-05-05 13:41 | 48.20104 | 1.53035 | 10519 ft | 299 kts | 34° |
| 2026-05-05 13:41 | 48.21821 | 1.54773 | 10242 ft | 296 kts | 35° |
| 2026-05-05 13:42 | 48.23514 | 1.56486 | 10012 ft | 291 kts | 35° |
| 2026-05-05 13:42 | 48.25168 | 1.58168 | 9966 ft | 284 kts | 36° |
| 2026-05-05 13:42 | 48.26781 | 1.59810 | 9952 ft | 277 kts | 35° |
| 2026-05-05 13:42 | 48.28367 | 1.61424 | 9937 ft | 275 kts | 36° |
| 2026-05-05 13:43 | 48.29946 | 1.63033 | 9972 ft | 274 kts | 36° |
| 2026-05-05 13:43 | 48.31524 | 1.64641 | 9973 ft | 275 kts | 36° |
| 2026-05-05 13:43 | 48.33105 | 1.66254 | 9984 ft | 275 kts | 36° |
| 2026-05-05 13:43 | 48.34685 | 1.67866 | 9987 ft | 274 kts | 36° |
| 2026-05-05 13:44 | 48.36264 | 1.69477 | 9983 ft | 275 kts | 36° |
| 2026-05-05 13:44 | 48.37839 | 1.71087 | 9896 ft | 273 kts | 36° |
| 2026-05-05 13:44 | 48.39408 | 1.72697 | 9607 ft | 274 kts | 35° |
| 2026-05-05 13:44 | 48.40969 | 1.74301 | 9373 ft | 271 kts | 34° |
| 2026-05-05 13:45 | 48.42537 | 1.75908 | 8735 ft | 275 kts | 34° |
| 2026-05-05 13:45 | 48.44137 | 1.77542 | 8058 ft | 277 kts | 34° |
| 2026-05-05 13:45 | 48.45722 | 1.79161 | 7574 ft | 272 kts | 35° |
| 2026-05-05 13:45 | 48.47271 | 1.80747 | 7065 ft | 267 kts | 35° |
| 2026-05-05 13:46 | 48.48803 | 1.82318 | 6555 ft | 265 kts | 35° |
| 2026-05-05 13:46 | 48.50300 | 1.83867 | 6227 ft | 256 kts | 35° |
| 2026-05-05 13:46 | 48.51741 | 1.85349 | 5935 ft | 252 kts | 34° |
| 2026-05-05 13:46 | 48.53186 | 1.86828 | 5637 ft | 251 kts | 34° |
| 2026-05-05 13:47 | 48.54628 | 1.88311 | 5302 ft | 251 kts | 34° |
| 2026-05-05 13:47 | 48.56054 | 1.89796 | 4969 ft | 247 kts | 38° |
| 2026-05-05 13:47 | 48.57269 | 1.91614 | 4636 ft | 246 kts | 51° |
| 2026-05-05 13:47 | 48.58242 | 1.93737 | 4340 ft | 246 kts | 56° |
| 2026-05-05 13:48 | 48.59145 | 1.95919 | 4055 ft | 244 kts | 58° |
| 2026-05-05 13:48 | 48.60000 | 1.98118 | 4043 ft | 243 kts | 58° |
| 2026-05-05 13:48 | 48.60840 | 2.00349 | 4032 ft | 243 kts | 59° |
| 2026-05-05 13:48 | 48.61661 | 2.02577 | 4000 ft | 243 kts | 59° |
| 2026-05-05 13:49 | 48.62459 | 2.04792 | 3984 ft | 233 kts | 60° |
| 2026-05-05 13:49 | 48.63193 | 2.06847 | 3996 ft | 218 kts | 60° |
| 2026-05-05 13:49 | 48.63906 | 2.08852 | 3692 ft | 214 kts | 60° |
| 2026-05-05 13:49 | 48.64590 | 2.10774 | 3383 ft | 198 kts | 59° |
| 2026-05-05 13:50 | 48.65192 | 2.12479 | 3241 ft | 163 kts | 59° |
| 2026-05-05 13:50 | 48.65725 | 2.13976 | 2876 ft | 169 kts | 59° |
| 2026-05-05 13:50 | 48.66265 | 2.15499 | 2680 ft | 142 kts | 59° |
| 2026-05-05 13:50 | 48.66742 | 2.16846 | 2600 ft | 148 kts | 58° |
| 2026-05-05 13:51 | 48.67332 | 2.18525 | 1288 ft | 188 kts | 61° |
| 2026-05-05 13:51 | 48.67834 | 2.20080 | 1431 ft | 149 kts | 56° |
| 2026-05-05 13:51 | 48.68353 | 2.21375 | 1281 ft | 139 kts | 54° |
| 2026-05-05 13:51 | 48.68869 | 2.22609 | 1390 ft | 140 kts | 53° |
| 2026-05-05 13:52 | 48.69375 | 2.23884 | 1322 ft | 143 kts | 62° |
| 2026-05-05 13:52 | 48.69803 | 2.25197 | 1336 ft | 135 kts | 61° |
| 2026-05-05 13:52 | 48.70148 | 2.26568 | 1140 ft | 140 kts | 66° |
| 2026-05-05 13:52 | 48.70613 | 2.27840 | 939 ft | 139 kts | 51° |
| 2026-05-05 13:53 | 48.71108 | 2.29069 | 728 ft | 135 kts | 62° |
| 2026-05-05 13:53 | 48.71450 | 2.30403 | 592 ft | 134 kts | 59° |
| 2026-05-05 13:53 | 48.71964 | 2.31649 | 397 ft | 147 kts | 55° |
| 2026-05-05 13:53 | 48.72444 | 2.32977 | 309 ft | 133 kts | 57° |
| 2026-05-05 13:54 | 48.72814 | 2.33983 | 306 ft | 79 kts | 61° |
| 2026-05-05 13:54 | 48.72980 | 2.34465 | 303 ft | 41 kts | 66° |
| 2026-05-05 13:54 | 48.73021 | 2.34891 | 305 ft | 41 kts | 84° |
| 2026-05-05 13:54 | 48.73039 | 2.35172 | 302 ft | 17 kts | 102° |
| 2026-05-05 13:55 | 48.73012 | 2.35248 | 304 ft | 0 kts | 136° |
| 2026-05-05 13:57 | 48.73009 | 2.35251 | 303 ft | 2 kts | 140° |
| 2026-05-05 13:57 | 48.72991 | 2.35269 | 305 ft | 5 kts | 149° |
| 2026-05-05 13:58 | 48.72951 | 2.35305 | 306 ft | 8 kts | 149° |
| 2026-05-05 13:58 | 48.72895 | 2.35358 | 305 ft | 11 kts | 133° |
| 2026-05-05 13:58 | 48.72900 | 2.35469 | 304 ft | 11 kts | 76° |
| 2026-05-05 13:58 | 48.72880 | 2.35553 | 304 ft | 6 kts | 155° |
| 2026-05-05 13:59 | 48.72772 | 2.35621 | 305 ft | 11 kts | 103° |
| 2026-05-05 13:59 | 48.72788 | 2.35724 | 304 ft | 7 kts | 58° |
| 2026-05-05 14:00 | 48.72833 | 2.35749 | 302 ft | 0 kts | 15° |
| 2026-05-05 14:00 | 48.72837 | 2.35751 | 306 ft | 2 kts | 14° |